Time;durP1;ratioP1;P1;durP2;ratioP2;P2;SDS_P1;SDS_P2;PMS_P1;PMS_P2;Temp;Humidity;BMP_temperature;BMP_pressure;BME280_temperature;BME280_humidity;BME280_pressure;Samples;Min_cycle;Max_cycle;Signal;HPM_P1;HPM_P2
2022/07/16 00:02:05;;;;;;;5.50;5.00;;;19.40;56.50;;;;;;5074612;28;20412;-59
2022/07/16 00:04:32;;;;;;;9.13;6.17;;;19.40;56.80;;;;;;5074928;28;20923;-59
2022/07/16 00:06:59;;;;;;;6.77;5.00;;;19.10;57.10;;;;;;5075145;28;20459;-60
2022/07/16 00:09:27;;;;;;;5.47;3.70;;;19.10;57.10;;;;;;5074640;28;20548;-58
2022/07/16 00:11:54;;;;;;;7.70;4.40;;;19.20;57.70;;;;;;5074266;28;20536;-60
2022/07/16 00:14:21;;;;;;;5.47;4.50;;;19.40;57.40;;;;;;5074814;28;20547;-59
2022/07/16 00:16:48;;;;;;;5.43;4.53;;;19.40;56.90;;;;;;5074526;28;20539;-59
2022/07/16 00:19:16;;;;;;;5.00;4.50;;;19.30;56.80;;;;;;5074341;28;20562;-59
2022/07/16 00:21:43;;;;;;;4.57;4.17;;;19.20;56.90;;;;;;5074537;28;20448;-60
2022/07/16 00:24:12;;;;;;;4.67;4.00;;;19.10;56.80;;;;;;5074270;28;20502;-59
2022/07/16 00:26:39;;;;;;;4.40;3.93;;;19.10;57.10;;;;;;5074446;28;20535;-58
2022/07/16 00:29:07;;;;;;;5.80;4.50;;;19.10;56.90;;;;;;5074402;28;20448;-58
2022/07/16 00:31:34;;;;;;;5.50;4.67;;;19.20;57.20;;;;;;5073947;28;20552;-59
2022/07/16 00:34:01;;;;;;;4.60;4.20;;;19.10;57.50;;;;;;5073933;28;20476;-58
2022/07/16 00:36:30;;;;;;;8.90;4.47;;;19.00;57.40;;;;;;5073948;28;20939;-59
2022/07/16 00:38:57;;;;;;;5.90;4.17;;;18.90;57.50;;;;;;5074124;28;20533;-58
2022/07/16 00:41:24;;;;;;;5.50;4.40;;;18.90;57.40;;;;;;5073256;28;20556;-59
2022/07/16 00:43:53;;;;;;;4.90;4.50;;;18.70;57.60;;;;;;5074236;28;20448;-58
2022/07/16 00:46:20;;;;;;;4.90;4.00;;;18.60;57.90;;;;;;5074076;28;20448;-59
2022/07/16 00:48:48;;;;;;;5.30;4.40;;;18.50;58.00;;;;;;5073996;28;20523;-59
2022/07/16 00:51:16;;;;;;;7.03;4.10;;;18.50;58.20;;;;;;5073779;28;20500;-59
2022/07/16 00:53:45;;;;;;;4.70;4.27;;;18.80;58.20;;;;;;5073685;28;20516;-59
2022/07/16 00:56:15;;;;;;;4.47;4.00;;;18.90;57.70;;;;;;5073481;28;20440;-59
2022/07/16 00:58:44;;;;;;;4.50;4.10;;;18.80;57.40;;;;;;5073846;28;20476;-59
2022/07/16 01:01:12;;;;;;;4.83;4.33;;;18.80;57.40;;;;;;5073840;28;20555;-59
2022/07/16 01:03:40;;;;;;;5.17;4.00;;;18.70;57.60;;;;;;5073739;28;20510;-59
2022/07/16 01:06:09;;;;;;;4.37;3.60;;;18.70;57.60;;;;;;5073577;28;20456;-59
2022/07/16 01:08:39;;;;;;;8.57;4.57;;;18.60;58.30;;;;;;5073728;28;20476;-59
2022/07/16 01:11:09;;;;;;;5.93;4.03;;;18.50;58.10;;;;;;5073495;28;20476;-59
2022/07/16 01:13:39;;;;;;;9.20;4.80;;;18.40;58.40;;;;;;5072713;28;20575;-59
2022/07/16 01:16:08;;;;;;;5.50;4.90;;;18.40;58.70;;;;;;5073200;28;20839;-58
2022/07/16 01:18:36;;;;;;;6.87;5.50;;;18.40;58.60;;;;;;5073620;28;20463;-58
2022/07/16 01:21:04;;;;;;;5.13;4.27;;;18.30;58.80;;;;;;5073137;28;20472;-58
2022/07/16 01:23:33;;;;;;;6.47;4.33;;;18.30;59.00;;;;;;5073428;28;20471;-58
2022/07/16 01:26:00;;;;;;;5.60;3.93;;;18.30;59.40;;;;;;5073577;28;20532;-58
2022/07/16 01:28:27;;;;;;;5.20;4.43;;;18.50;59.80;;;;;;5073096;28;20497;-58
2022/07/16 01:30:54;;;;;;;6.87;4.57;;;18.50;59.10;;;;;;5073003;28;20470;-59
2022/07/16 01:33:24;;;;;;;5.03;3.83;;;18.30;59.50;;;;;;5073126;28;20468;-59
2022/07/16 01:35:55;;;;;;;4.10;3.80;;;18.10;59.80;;;;;;5073134;28;20457;-59
2022/07/16 01:38:23;;;;;;;4.93;4.53;;;18.00;59.90;;;;;;5073008;28;20527;-59
2022/07/16 01:40:52;;;;;;;4.83;4.33;;;17.90;60.30;;;;;;5072880;28;20487;-59
2022/07/16 01:43:21;;;;;;;5.67;4.80;;;17.90;60.30;;;;;;5073142;28;20524;-59
2022/07/16 01:45:49;;;;;;;6.27;5.63;;;17.80;60.50;;;;;;5072826;28;20449;-59
2022/07/16 01:48:17;;;;;;;7.80;5.60;;;17.80;60.40;;;;;;5073169;28;20820;-58
2022/07/16 01:50:45;;;;;;;5.33;3.57;;;17.90;59.90;;;;;;5073210;28;20541;-59
2022/07/16 01:53:16;;;;;;;4.00;3.60;;;17.90;59.60;;;;;;5072977;28;20490;-59
2022/07/16 01:55:43;;;;;;;5.07;3.60;;;18.00;59.40;;;;;;5072799;28;20466;-59
2022/07/16 01:58:14;;;;;;;4.70;4.30;;;18.10;59.30;;;;;;5072840;28;20813;-59
2022/07/16 02:00:44;;;;;;;4.23;3.57;;;18.00;59.40;;;;;;5072699;28;20560;-59
2022/07/16 02:03:12;;;;;;;4.97;4.10;;;18.30;59.60;;;;;;5072778;28;20433;-59
2022/07/16 02:05:40;;;;;;;4.73;4.30;;;18.20;59.50;;;;;;5072540;28;20513;-59
2022/07/16 02:08:08;;;;;;;7.10;4.00;;;18.10;59.60;;;;;;5073044;28;20451;-59
2022/07/16 02:10:35;;;;;;;4.53;4.13;;;18.00;59.90;;;;;;5072523;28;21046;-60
2022/07/16 02:13:03;;;;;;;5.17;4.63;;;18.00;59.60;;;;;;5072849;28;20480;-59
2022/07/16 02:15:31;;;;;;;5.80;3.70;;;17.90;59.60;;;;;;5072952;28;20539;-59
2022/07/16 02:17:59;;;;;;;4.43;4.03;;;17.90;59.70;;;;;;5072488;28;20443;-59
2022/07/16 02:20:26;;;;;;;4.63;4.23;;;17.90;59.80;;;;;;5072453;28;21050;-59
2022/07/16 02:22:54;;;;;;;5.40;4.07;;;17.90;59.50;;;;;;5073045;28;20531;-59
2022/07/16 02:25:21;;;;;;;4.00;3.60;;;17.90;59.40;;;;;;5076527;28;20452;-59
2022/07/16 02:30:35;;;;;;;4.93;3.93;;;17.90;59.20;;;;;;5076464;28;20805;-59
2022/07/16 02:33:02;;;;;;;4.07;3.60;;;17.80;59.60;;;;;;5076485;28;20838;-59
2022/07/16 02:35:29;;;;;;;4.20;3.80;;;17.80;59.80;;;;;;5076684;28;20495;-59
2022/07/16 02:37:58;;;;;;;5.27;3.73;;;17.70;60.70;;;;;;5076466;28;20460;-59
2022/07/16 02:40:25;;;;;;;6.50;4.03;;;17.60;60.00;;;;;;5076075;28;20512;-59
2022/07/16 02:42:53;;;;;;;4.37;3.63;;;17.60;60.80;;;;;;5076519;28;20935;-59
2022/07/16 02:45:20;;;;;;;5.10;3.63;;;17.50;60.80;;;;;;5076394;28;20450;-59
2022/07/16 02:47:48;;;;;;;8.27;3.60;;;17.60;61.60;;;;;;5076322;28;20459;-59
2022/07/16 02:50:16;;;;;;;3.97;3.50;;;17.70;61.70;;;;;;5076030;28;20555;-59
2022/07/16 02:52:43;;;;;;;3.80;3.50;;;17.60;61.10;;;;;;5076135;28;20961;-59
2022/07/16 02:55:10;;;;;;;4.63;4.20;;;17.40;61.80;;;;;;5076183;28;20448;-58
2022/07/16 02:57:39;;;;;;;4.77;3.90;;;17.40;62.50;;;;;;5076266;28;20448;-58
2022/07/16 03:00:07;;;;;;;5.70;3.80;;;17.40;62.70;;;;;;5075765;28;20495;-59
2022/07/16 03:02:34;;;;;;;3.83;3.53;;;17.30;62.80;;;;;;5075815;28;20923;-58
2022/07/16 03:05:03;;;;;;;6.63;4.17;;;17.30;63.30;;;;;;5075718;28;20440;-58
2022/07/16 03:07:31;;;;;;;6.03;4.80;;;17.20;63.50;;;;;;5076061;28;20459;-59
2022/07/16 03:09:58;;;;;;;4.30;4.00;;;17.00;64.10;;;;;;5075457;28;20464;-59
2022/07/16 03:12:25;;;;;;;5.70;3.80;;;16.90;64.20;;;;;;5075681;28;20444;-59
2022/07/16 03:14:53;;;;;;;10.90;4.20;;;16.90;64.50;;;;;;5075597;28;20490;-58
2022/07/16 03:17:20;;;;;;;6.50;4.20;;;16.80;64.60;;;;;;5075817;28;20455;-60
2022/07/16 03:19:47;;;;;;;4.50;4.00;;;16.80;65.10;;;;;;5075482;28;21036;-59
2022/07/16 03:22:16;;;;;;;3.90;3.50;;;17.00;65.10;;;;;;5075690;28;20550;-59
2022/07/16 03:24:43;;;;;;;4.80;3.77;;;17.30;63.80;;;;;;5075445;28;20451;-59
2022/07/16 03:27:12;;;;;;;4.07;3.67;;;17.20;64.20;;;;;;5075634;28;20455;-59
2022/07/16 03:29:39;;;;;;;3.60;3.20;;;17.10;64.30;;;;;;5075654;28;20556;-59
2022/07/16 03:32:06;;;;;;;4.50;3.70;;;17.00;64.40;;;;;;5075290;28;20454;-59
2022/07/16 03:34:35;;;;;;;5.07;4.07;;;16.90;64.80;;;;;;5074917;28;20889;-59
2022/07/16 03:37:02;;;;;;;4.03;3.73;;;16.90;64.40;;;;;;5074946;28;20464;-59
2022/07/16 03:39:31;;;;;;;3.40;3.10;;;16.90;64.80;;;;;;5075356;28;20527;-58
2022/07/16 03:41:58;;;;;;;4.40;3.97;;;17.00;64.50;;;;;;5074964;28;20992;-59
2022/07/16 03:44:26;;;;;;;3.60;3.30;;;17.10;64.90;;;;;;5075496;28;20520;-59
2022/07/16 03:46:53;;;;;;;4.67;4.07;;;17.20;65.30;;;;;;5075018;28;20480;-59
2022/07/16 03:49:20;;;;;;;3.97;3.53;;;17.30;65.00;;;;;;5075198;28;20476;-58
2022/07/16 03:51:47;;;;;;;4.03;3.70;;;17.30;64.90;;;;;;5074941;28;20459;-59
2022/07/16 03:54:14;;;;;;;4.27;3.87;;;17.30;65.30;;;;;;5074697;28;20567;-59
2022/07/16 03:56:43;;;;;;;6.67;3.93;;;17.30;64.60;;;;;;5074701;28;20540;-59
2022/07/16 03:59:10;;;;;;;5.00;3.90;;;17.00;64.50;;;;;;5075078;28;20539;-58
2022/07/16 04:01:38;;;;;;;4.60;3.77;;;17.00;66.00;;;;;;5074905;28;20472;-58
2022/07/16 04:04:05;;;;;;;3.87;3.50;;;16.90;65.60;;;;;;5074878;28;20472;-59
2022/07/16 04:06:32;;;;;;;4.93;3.77;;;16.80;66.10;;;;;;5074691;28;20543;-58
2022/07/16 04:09:00;;;;;;;5.53;3.40;;;16.80;65.70;;;;;;5074886;28;20536;-58
2022/07/16 04:11:27;;;;;;;3.53;3.23;;;16.60;65.90;;;;;;5074308;28;20982;-58
2022/07/16 04:13:55;;;;;;;5.47;4.73;;;16.50;66.20;;;;;;5074608;28;20484;-58
2022/07/16 04:16:23;;;;;;;4.73;3.70;;;16.50;66.80;;;;;;5074755;28;20448;-58
2022/07/16 04:18:50;;;;;;;3.87;3.57;;;16.60;66.70;;;;;;5074570;28;20450;-58
2022/07/16 04:21:17;;;;;;;6.40;4.10;;;16.60;66.90;;;;;;5074116;28;20671;-58
2022/07/16 04:23:44;;;;;;;5.10;4.30;;;16.70;68.00;;;;;;5074267;28;20440;-59
2022/07/16 04:26:11;;;;;;;3.40;3.10;;;16.70;67.10;;;;;;5074390;28;20531;-58
2022/07/16 04:28:39;;;;;;;5.00;4.30;;;16.70;67.70;;;;;;5074096;28;20444;-58
2022/07/16 04:31:07;;;;;;;6.93;4.33;;;16.80;68.30;;;;;;5074137;28;20842;-58
2022/07/16 04:33:34;;;;;;;4.63;4.13;;;16.90;68.00;;;;;;5074240;28;20483;-58
2022/07/16 04:36:03;;;;;;;6.30;5.67;;;17.10;69.30;;;;;;5074233;28;20456;-58
2022/07/16 04:38:30;;;;;;;8.00;4.27;;;17.00;67.20;;;;;;5074325;28;20449;-59
2022/07/16 04:40:57;;;;;;;4.23;3.87;;;17.10;68.40;;;;;;5073855;28;20574;-58
2022/07/16 04:43:24;;;;;;;8.83;4.40;;;17.20;68.40;;;;;;5073714;28;20903;-58
2022/07/16 04:45:54;;;;;;;5.87;4.50;;;17.40;69.10;;;;;;5073817;28;20444;-58
2022/07/16 04:48:23;;;;;;;6.33;4.60;;;17.40;68.50;;;;;;5073311;28;20444;-58
2022/07/16 04:50:50;;;;;;;5.67;4.10;;;17.40;68.80;;;;;;5073832;28;20551;-58
2022/07/16 04:53:18;;;;;;;6.90;4.23;;;17.40;69.00;;;;;;5073584;28;20449;-59
2022/07/16 04:55:45;;;;;;;4.13;3.83;;;17.50;68.10;;;;;;5073833;28;20547;-59
2022/07/16 04:58:12;;;;;;;6.53;4.13;;;17.40;67.50;;;;;;5073405;28;20448;-59
2022/07/16 05:00:39;;;;;;;4.67;4.00;;;17.40;69.60;;;;;;5073652;28;20603;-58
2022/07/16 05:03:07;;;;;;;6.77;3.90;;;17.40;70.70;;;;;;5073559;28;20433;-58
2022/07/16 05:05:38;;;;;;;4.10;3.70;;;17.40;68.30;;;;;;5073338;28;20943;-58
2022/07/16 05:08:08;;;;;;;5.20;4.70;;;17.40;68.40;;;;;;5073693;28;20444;-58
2022/07/16 05:10:35;;;;;;;3.93;3.63;;;17.40;68.50;;;;;;5073489;28;20499;-58
2022/07/16 05:13:03;;;;;;;4.40;3.93;;;17.50;69.40;;;;;;5073150;28;20812;-59
2022/07/16 05:15:31;;;;;;;5.80;4.57;;;17.60;68.50;;;;;;5073016;28;20978;-59
2022/07/16 05:17:58;;;;;;;5.97;3.80;;;17.70;69.10;;;;;;5073216;28;20792;-58
2022/07/16 05:20:26;;;;;;;6.60;3.90;;;17.70;67.00;;;;;;5073066;28;20445;-58
2022/07/16 05:22:54;;;;;;;5.00;4.00;;;17.80;68.50;;;;;;5073002;28;20444;-58
2022/07/16 05:25:22;;;;;;;4.17;3.80;;;17.90;67.40;;;;;;5073395;28;20474;-58
2022/07/16 05:27:50;;;;;;;4.77;4.20;;;18.00;67.00;;;;;;5073378;28;20457;-58
2022/07/16 05:30:18;;;;;;;4.30;3.90;;;18.10;67.20;;;;;;5073174;28;20490;-58
2022/07/16 05:32:46;;;;;;;4.80;4.30;;;18.10;67.50;;;;;;5072887;28;20444;-59
2022/07/16 05:35:15;;;;;;;6.43;4.00;;;18.20;67.40;;;;;;5073143;28;20591;-58
2022/07/16 05:37:42;;;;;;;4.90;4.20;;;18.20;67.00;;;;;;5073241;28;20502;-58
2022/07/16 05:40:13;;;;;;;4.67;3.90;;;18.20;66.40;;;;;;5072756;28;20614;-58
2022/07/16 05:42:40;;;;;;;5.13;4.20;;;18.40;66.50;;;;;;5073333;28;20461;-58
2022/07/16 05:45:08;;;;;;;8.63;4.83;;;18.30;63.10;;;;;;5073062;28;20539;-59
2022/07/16 05:47:36;;;;;;;4.33;3.93;;;18.30;64.30;;;;;;5072704;28;20958;-59
2022/07/16 05:50:07;;;;;;;5.53;5.00;;;18.40;66.40;;;;;;5073119;28;20470;-58
2022/07/16 05:52:34;;;;;;;6.00;4.37;;;18.50;66.40;;;;;;5073118;28;20466;-59
2022/07/16 05:55:02;;;;;;;6.07;3.50;;;18.50;66.60;;;;;;5072531;28;20515;-59
2022/07/16 05:57:30;;;;;;;10.57;4.67;;;18.50;66.00;;;;;;5072583;28;20539;-59
2022/07/16 05:59:58;;;;;;;4.43;4.03;;;18.60;66.90;;;;;;5072741;28;20552;-59
2022/07/16 06:02:25;;;;;;;5.93;4.63;;;18.70;66.30;;;;;;5072949;28;20866;-59
2022/07/16 06:04:52;;;;;;;6.73;4.23;;;18.90;67.50;;;;;;5072495;28;20472;-59
2022/07/16 06:07:20;;;;;;;8.03;4.60;;;18.90;65.90;;;;;;5072710;28;20484;-59
2022/07/16 06:09:47;;;;;;;7.70;4.70;;;18.80;64.00;;;;;;5072650;28;20468;-58
2022/07/16 06:12:14;;;;;;;4.37;3.97;;;18.70;64.20;;;;;;5072479;28;20448;-58
2022/07/16 06:14:43;;;;;;;5.53;4.00;;;18.80;64.10;;;;;;5072783;28;20837;-59
2022/07/16 06:17:10;;;;;;;7.20;4.57;;;18.90;65.60;;;;;;5072801;28;20547;-59
2022/07/16 06:19:41;;;;;;;4.17;3.87;;;19.10;66.30;;;;;;5072393;28;20991;-59
2022/07/16 06:22:08;;;;;;;4.30;3.90;;;19.10;65.30;;;;;;5072486;28;20444;-59
2022/07/16 06:24:35;;;;;;;8.30;4.80;;;19.20;65.40;;;;;;5072461;28;20927;-59
2022/07/16 06:27:04;;;;;;;5.07;4.57;;;19.30;65.00;;;;;;5072307;28;20452;-59
2022/07/16 06:29:31;;;;;;;7.87;5.17;;;19.30;65.60;;;;;;5072391;28;20542;-59
2022/07/16 06:32:00;;;;;;;5.40;4.90;;;19.30;66.80;;;;;;5072458;28;20547;-59
2022/07/16 06:34:27;;;;;;;5.10;4.67;;;19.50;64.60;;;;;;5072504;28;20559;-59
2022/07/16 06:36:54;;;;;;;6.40;4.53;;;19.50;66.00;;;;;;5072154;28;20482;-58
2022/07/16 06:39:21;;;;;;;7.47;5.87;;;20.20;65.60;;;;;;5072258;28;20455;-60
2022/07/16 06:41:48;;;;;;;19.53;5.27;;;20.50;63.00;;;;;;5071931;28;20545;-59
2022/07/16 06:44:18;;;;;;;7.37;4.70;;;20.60;63.20;;;;;;5072668;28;20440;-59
2022/07/16 06:46:45;;;;;;;7.30;4.60;;;20.70;63.80;;;;;;5072861;28;20448;-59
2022/07/16 06:49:14;;;;;;;8.07;4.63;;;21.20;63.80;;;;;;5072460;28;20463;-59
2022/07/16 06:51:41;;;;;;;7.23;5.40;;;21.60;62.20;;;;;;5072381;28;20448;-59
2022/07/16 06:54:09;;;;;;;7.90;5.60;;;20.60;62.40;;;;;;5072282;28;20508;-59
2022/07/16 06:56:36;;;;;;;5.33;4.67;;;20.10;63.90;;;;;;5072277;28;20455;-59
2022/07/16 06:59:03;;;;;;;6.00;4.80;;;20.40;64.90;;;;;;5072079;28;20444;-59
2022/07/16 07:01:33;;;;;;;7.10;4.47;;;20.40;64.40;;;;;;5072058;28;20556;-60
2022/07/16 07:04:03;;;;;;;6.43;4.20;;;20.10;64.60;;;;;;5072288;28;20451;-58
2022/07/16 07:06:32;;;;;;;8.13;4.70;;;20.60;64.60;;;;;;5072155;28;20941;-59
2022/07/16 07:08:59;;;;;;;5.73;4.60;;;20.60;63.70;;;;;;5071927;28;20450;-58
2022/07/16 07:11:26;;;;;;;6.27;4.70;;;20.50;62.60;;;;;;5074625;28;20500;-58
2022/07/16 07:13:54;;;;;;;7.63;4.27;;;20.40;64.10;;;;;;5075398;28;20927;-59
2022/07/16 07:16:24;;;;;;;5.70;3.80;;;20.40;62.70;;;;;;5075158;28;21063;-60
2022/07/16 07:18:51;;;;;;;4.83;3.60;;;21.80;61.20;;;;;;5075634;28;20501;-60
2022/07/16 07:21:21;;;;;;;4.90;3.50;;;23.00;58.70;;;;;;5075246;28;20575;-60
2022/07/16 07:23:52;;;;;;;6.90;3.60;;;23.80;56.40;;;;;;5075185;28;20448;-59
2022/07/16 07:26:19;;;;;;;4.47;3.30;;;24.50;56.30;;;;;;5075354;28;20528;-60
2022/07/16 07:28:46;;;;;;;4.20;3.40;;;25.80;54.80;;;;;;5075477;28;20476;-58
2022/07/16 07:31:14;;;;;;;3.50;3.20;;;26.20;53.90;;;;;;5075080;28;20474;-59
2022/07/16 07:33:41;;;;;;;5.20;2.87;;;26.60;53.10;;;;;;5075199;28;20491;-59
2022/07/16 07:36:08;;;;;;;4.93;3.07;;;26.80;52.70;;;;;;5075517;28;20581;-59
2022/07/16 07:38:36;;;;;;;5.10;2.97;;;26.70;52.00;;;;;;5060757;28;20836;-60
2022/07/16 07:41:05;;;;;;;3.50;3.20;;;25.90;51.10;;;;;;5054646;28;20481;-59
2022/07/16 07:43:32;;;;;;;3.87;3.13;;;25.60;52.30;;;;;;5054171;28;20540;-58
2022/07/16 07:45:59;;;;;;;4.50;3.53;;;25.40;52.80;;;;;;5055854;28;20527;-59
2022/07/16 07:48:26;;;;;;;3.23;2.80;;;26.20;53.00;;;;;;5052324;28;20492;-56
2022/07/16 07:50:54;;;;;;;4.70;3.20;;;26.10;52.70;;;;;;5060338;28;20949;-64
2022/07/16 07:53:25;;;;;;;3.30;2.77;;;27.00;51.70;;;;;;5058490;28;20456;-54
2022/07/16 07:55:55;;;;;;;3.40;3.00;;;27.00;50.90;;;;;;5071457;28;20472;-58
2022/07/16 07:58:34;;;;;;;3.83;3.13;;;27.40;51.20;;;;;;5059185;28;20857;-57
2022/07/16 08:01:05;;;;;;;4.63;3.50;;;27.30;50.10;;;;;;5060697;28;20571;-58
2022/07/16 08:03:33;;;;;;;3.60;2.53;;;27.30;50.20;;;;;;5060577;28;20510;-61
2022/07/16 08:06:00;;;;;;;3.67;3.37;;;27.30;50.40;;;;;;5061884;28;20806;-61
2022/07/16 08:08:27;;;;;;;4.60;3.63;;;27.10;48.50;;;;;;5060338;28;20454;-60
2022/07/16 08:10:56;;;;;;;2.80;2.60;;;27.60;49.80;;;;;;5061519;28;20461;-62
2022/07/16 08:13:27;;;;;;;3.87;2.70;;;27.90;49.10;;;;;;5055255;28;20453;-63
2022/07/16 08:15:54;;;;;;;3.37;3.07;;;28.50;48.60;;;;;;5066410;28;21073;-60
2022/07/16 08:18:21;;;;;;;3.73;2.80;;;28.10;47.80;;;;;;5066978;28;20487;-58
2022/07/16 08:20:48;;;;;;;5.50;3.17;;;28.70;47.90;;;;;;5054100;28;20534;-61
2022/07/16 08:25:44;;;;;;;2.60;2.20;;;28.10;47.70;;;;;;5030942;28;20575;-58
2022/07/16 08:26:02;;;;;;;3.73;2.97;;;28.00;48.40;;;;;;5033035;28;20429;-64
2022/07/16 08:28:31;;;;;;;2.73;2.53;;;28.10;46.90;;;;;;5038437;28;20566;-65
2022/07/16 08:30:59;;;;;;;6.27;2.87;;;27.90;47.60;;;;;;5036395;28;20480;-62
2022/07/16 08:33:26;;;;;;;3.70;3.40;;;27.90;48.30;;;;;;5036728;28;20483;-60
2022/07/16 08:35:53;;;;;;;3.60;2.60;;;27.40;47.60;;;;;;5037747;28;20495;-55
2022/07/16 08:38:20;;;;;;;7.00;4.90;;;27.90;48.20;;;;;;5048710;28;20455;-60
2022/07/16 08:40:50;;;;;;;4.00;3.00;;;28.00;48.30;;;;;;5050815;28;20476;-59
2022/07/16 08:43:19;;;;;;;18.20;7.90;;;28.00;46.80;;;;;;5049184;28;20536;-60
2022/07/16 08:45:53;;;;;;;10.20;5.00;;;28.30;47.40;;;;;;5048310;28;20462;-59
2022/07/16 08:48:21;;;;;;;8.50;5.87;;;28.50;47.30;;;;;;5046888;28;20459;-58
2022/07/16 08:50:53;;;;;;;5.13;3.20;;;28.30;47.00;;;;;;5050572;28;20626;-67
2022/07/16 08:53:25;;;;;;;4.53;3.27;;;28.20;46.80;;;;;;5047464;28;20463;-59
2022/07/16 08:55:53;;;;;;;3.10;2.53;;;28.50;46.30;;;;;;5049550;28;20471;-57
2022/07/16 08:58:20;;;;;;;4.37;2.70;;;29.20;46.50;;;;;;5047662;28;20464;-55
2022/07/16 09:00:48;;;;;;;3.40;2.33;;;28.80;44.40;;;;;;5050486;28;21083;-61
2022/07/16 09:03:16;;;;;;;2.77;2.53;;;29.30;45.50;;;;;;5047602;28;20798;-64
2022/07/16 09:05:44;;;;;;;3.00;2.60;;;29.50;45.30;;;;;;5053544;28;20477;-58
2022/07/16 09:08:11;;;;;;;2.47;2.03;;;29.80;45.10;;;;;;5040644;28;20447;-57
2022/07/16 09:10:39;;;;;;;5.57;2.90;;;29.10;44.70;;;;;;5039421;28;20510;-61
2022/07/16 09:13:09;;;;;;;3.77;2.13;;;28.60;45.10;;;;;;5036867;28;21222;-55
2022/07/16 09:15:38;;;;;;;3.00;2.00;;;29.00;45.20;;;;;;5043284;28;20539;-59
2022/07/16 09:18:19;;;;;;;2.80;2.43;;;29.20;45.60;;;;;;5033252;28;20523;-61
2022/07/16 09:20:52;;;;;;;2.30;1.90;;;29.70;44.60;;;;;;5037105;28;20479;-58
2022/07/16 09:23:39;;;;;;;2.27;2.07;;;29.10;44.70;;;;;;5043809;28;20929;-58
2022/07/16 09:26:08;;;;;;;3.47;2.50;;;29.10;44.20;;;;;;5044356;28;20429;-58
2022/07/16 09:28:42;;;;;;;2.53;2.13;;;29.20;44.60;;;;;;5047483;28;20675;-63
2022/07/16 09:31:10;;;;;;;4.97;2.67;;;28.60;45.00;;;;;;5040214;28;20520;-56
2022/07/16 09:33:38;;;;;;;3.50;2.17;;;28.90;44.50;;;;;;5042325;28;20463;-58
2022/07/16 09:36:09;;;;;;;2.00;1.80;;;29.60;44.80;;;;;;5043476;28;20665;-63
2022/07/16 09:38:48;;;;;;;4.40;2.73;;;29.90;44.70;;;;;;5044690;28;20460;-60
2022/07/16 09:41:15;;;;;;;2.80;2.47;;;29.10;44.30;;;;;;5041169;28;20501;-56
2022/07/16 09:43:43;;;;;;;2.33;1.87;;;28.30;44.60;;;;;;5044167;28;20467;-57
2022/07/16 09:46:16;;;;;;;3.77;2.47;;;28.70;45.60;;;;;;5044233;28;20460;-59
2022/07/16 09:48:45;;;;;;;4.13;1.97;;;29.60;45.30;;;;;;5046284;28;20453;-57
2022/07/16 09:51:22;;;;;;;3.87;2.40;;;29.90;44.40;;;;;;5045536;28;20531;-57
2022/07/16 09:53:50;;;;;;;3.20;2.10;;;29.30;43.60;;;;;;5049707;28;20460;-53
2022/07/16 09:56:19;;;;;;;4.33;2.20;;;30.20;43.90;;;;;;5044268;28;21003;-57
2022/07/16 09:58:48;;;;;;;2.50;2.30;;;30.30;44.60;;;;;;5035482;28;21050;-60
2022/07/16 10:01:19;;;;;;;2.23;2.03;;;30.40;43.10;;;;;;5041394;28;20485;-55
2022/07/16 10:03:49;;;;;;;3.67;3.37;;;29.50;44.20;;;;;;5045337;28;21468;-55
2022/07/16 10:06:17;;;;;;;7.40;3.03;;;29.50;44.00;;;;;;5048337;28;20463;-62
2022/07/16 10:08:44;;;;;;;6.17;3.23;;;29.70;44.00;;;;;;5047052;28;20605;-60
2022/07/16 10:11:13;;;;;;;2.43;2.20;;;30.20;43.60;;;;;;5047351;28;20490;-59
2022/07/16 10:13:43;;;;;;;3.27;2.47;;;30.20;43.20;;;;;;5044185;28;21028;-63
2022/07/16 10:16:10;;;;;;;5.23;2.33;;;30.20;43.70;;;;;;5043431;28;20473;-61
2022/07/16 10:18:40;;;;;;;4.60;2.23;;;30.40;44.10;;;;;;5042071;28;21091;-59
2022/07/16 10:21:12;;;;;;;3.20;2.13;;;30.40;44.10;;;;;;5047217;28;20468;-55
2022/07/16 10:23:41;;;;;;;3.93;2.50;;;29.70;43.00;;;;;;5049729;28;20452;-56
2022/07/16 10:26:13;;;;;;;8.50;2.40;;;29.60;43.50;;;;;;5053751;28;21847;-56
2022/07/16 10:28:45;;;;;;;4.70;2.67;;;30.20;43.60;;;;;;5059120;28;20444;-57
2022/07/16 10:31:35;;;;;;;3.37;2.33;;;30.40;43.70;;;;;;5048587;28;20665;-52
2022/07/16 10:34:39;;;;;;;2.60;1.97;;;30.00;43.00;;;;;;5056948;28;20457;-57
2022/07/16 10:37:26;;;;;;;3.27;1.90;;;29.70;43.00;;;;;;5055758;28;21331;-56
2022/07/16 10:40:08;;;;;;;3.23;2.10;;;30.50;43.30;;;;;;5056882;28;20467;-62
2022/07/16 10:42:35;;;;;;;2.70;2.23;;;30.20;43.10;;;;;;5045311;28;20467;-61
2022/07/16 10:45:03;;;;;;;5.17;2.20;;;30.10;42.30;;;;;;5048554;28;20918;-63
2022/07/16 10:47:49;;;;;;;2.40;2.20;;;30.40;43.70;;;;;;5051042;28;20465;-65
2022/07/16 10:50:20;;;;;;;2.40;1.83;;;30.40;42.80;;;;;;5065294;28;20601;-60
2022/07/16 10:52:51;;;;;;;5.03;2.40;;;29.90;42.70;;;;;;5054609;28;21025;-67
2022/07/16 10:55:40;;;;;;;2.67;2.40;;;29.90;43.00;;;;;;5055690;28;20854;-58
2022/07/16 10:58:07;;;;;;;3.90;2.47;;;29.60;43.40;;;;;;5061732;28;20807;-66
2022/07/16 11:00:35;;;;;;;3.30;2.37;;;29.80;42.80;;;;;;5057161;28;21053;-59
2022/07/16 11:03:04;;;;;;;2.47;2.27;;;29.90;42.60;;;;;;5049857;28;20460;-60
2022/07/16 11:05:34;;;;;;;2.50;2.00;;;30.20;43.00;;;;;;5061867;28;20463;-57
2022/07/16 11:08:10;;;;;;;2.50;2.30;;;29.80;42.40;;;;;;5062878;28;20456;-60
2022/07/16 11:10:40;;;;;;;2.80;2.60;;;30.20;42.60;;;;;;5056334;28;20620;-63
2022/07/16 11:13:15;;;;;;;6.20;2.60;;;29.50;43.00;;;;;;5062996;28;20450;-61
2022/07/16 11:15:43;;;;;;;2.60;2.40;;;29.60;42.50;;;;;;5063978;28;21095;-63
2022/07/16 11:18:16;;;;;;;1.93;1.80;;;30.30;42.10;;;;;;5060511;28;20472;-61
2022/07/16 11:20:44;;;;;;;2.93;2.00;;;30.40;42.60;;;;;;5057897;28;20498;-61
2022/07/16 11:23:14;;;;;;;2.70;2.50;;;30.70;42.40;;;;;;5049964;28;20464;-62
2022/07/16 11:26:01;;;;;;;6.00;2.00;;;30.40;42.20;;;;;;5057807;28;20450;-60
2022/07/16 11:28:28;;;;;;;2.33;1.97;;;30.60;42.00;;;;;;5055111;28;20494;-63
2022/07/16 11:31:04;;;;;;;3.07;2.40;;;30.40;42.20;;;;;;5055591;28;20485;-63
2022/07/16 11:33:35;;;;;;;4.10;2.37;;;29.80;41.70;;;;;;5055860;28;20458;-63
2022/07/16 11:36:13;;;;;;;3.77;1.90;;;29.40;42.00;;;;;;5055696;28;20605;-62
2022/07/16 11:38:42;;;;;;;2.90;1.70;;;28.70;41.50;;;;;;5057231;28;20878;-63
2022/07/16 11:41:09;;;;;;;3.17;2.03;;;28.70;40.90;;;;;;5054872;28;20839;-62
2022/07/16 11:43:37;;;;;;;4.77;2.10;;;28.90;41.20;;;;;;5055265;28;20997;-60
2022/07/16 11:46:04;;;;;;;4.40;1.90;;;29.40;41.20;;;;;;5054101;28;21149;-62
2022/07/16 11:48:38;;;;;;;2.17;1.83;;;28.80;41.10;;;;;;5054128;28;20467;-61
2022/07/16 11:51:09;;;;;;;2.23;2.03;;;29.30;41.50;;;;;;5060310;28;20464;-61
2022/07/16 11:53:37;;;;;;;3.67;1.90;;;29.50;41.50;;;;;;5064196;28;20534;-61
2022/07/16 11:56:08;;;;;;;2.20;2.00;;;29.80;41.30;;;;;;5055389;28;20490;-61
2022/07/16 11:58:36;;;;;;;2.83;2.00;;;29.70;41.10;;;;;;5058814;28;20460;-61
2022/07/16 12:01:03;;;;;;;3.07;1.90;;;29.90;41.70;;;;;;5067169;28;20458;-61
2022/07/16 12:03:30;;;;;;;3.40;1.90;;;29.60;41.70;;;;;;5061668;28;20459;-60
2022/07/16 12:06:01;;;;;;;7.13;2.53;;;29.90;42.00;;;;;;5063225;28;20470;-60
2022/07/16 12:08:30;;;;;;;2.27;2.07;;;30.10;41.90;;;;;;5059057;28;20467;-61
2022/07/16 12:11:01;;;;;;;2.70;1.97;;;29.30;42.10;;;;;;5060758;28;20459;-61
2022/07/16 12:13:30;;;;;;;2.70;1.80;;;28.70;42.50;;;;;;5054935;28;20490;-61
2022/07/16 12:15:58;;;;;;;3.80;2.80;;;28.90;42.30;;;;;;5055343;28;20760;-61
2022/07/16 12:18:26;;;;;;;2.33;2.13;;;29.10;42.30;;;;;;5050721;28;21252;-59
2022/07/16 12:20:53;;;;;;;3.80;2.03;;;29.20;42.60;;;;;;5050657;28;20490;-59
2022/07/16 12:23:41;;;;;;;2.60;2.00;;;29.40;42.70;;;;;;5057132;28;20447;-60
2022/07/16 12:26:08;;;;;;;2.73;2.50;;;29.10;42.90;;;;;;5049702;28;21150;-60
2022/07/16 12:28:37;;;;;;;5.20;2.60;;;29.40;42.80;;;;;;5053368;28;20582;-59
2022/07/16 12:31:11;;;;;;;5.67;2.30;;;29.30;42.70;;;;;;5064868;28;20471;-59
2022/07/16 12:33:39;;;;;;;4.90;2.53;;;29.20;42.60;;;;;;5061968;28;20469;-60
2022/07/16 12:36:07;;;;;;;3.00;2.20;;;28.50;43.40;;;;;;5064434;28;20463;-60
2022/07/16 12:38:45;;;;;;;2.70;2.50;;;29.10;43.00;;;;;;5065890;28;20463;-60
2022/07/16 12:41:14;;;;;;;2.67;1.80;;;29.40;42.60;;;;;;5061911;28;20487;-62
2022/07/16 12:43:44;;;;;;;8.57;3.47;;;29.60;42.70;;;;;;5059248;28;20451;-59
2022/07/16 12:46:12;;;;;;;2.43;2.23;;;30.20;42.60;;;;;;5061160;28;21002;-61
2022/07/16 12:48:44;;;;;;;3.83;2.27;;;30.30;42.40;;;;;;5058026;28;20796;-60
2022/07/16 12:51:14;;;;;;;3.30;2.20;;;30.30;42.80;;;;;;5064193;28;20479;-60
2022/07/16 12:53:42;;;;;;;2.70;2.20;;;30.00;42.50;;;;;;5070438;28;20452;-62
2022/07/16 12:58:55;;;;;;;2.67;1.97;;;28.70;43.30;;;;;;5057029;28;20446;-60
2022/07/16 13:01:24;;;;;;;4.23;2.00;;;28.90;43.20;;;;;;5062043;28;20463;-60